Time,TemperatureF,DewpointF,PressureIn,WindDirection,WindDirectionDegrees,WindSpeedMPH,WindSpeedGustMPH,Humidity,HourlyPrecipIn,Conditions,Clouds,dailyrainin,SoftwareType,DateUTC
2013-10-23 00:02:00,34.2,31.6,30.10,North,7,1.1,1.1,90,0.00,,SKC,0.00,WeatherDisplay:10.37,2013-10-23 05:02:00,
2013-10-23 00:07:00,34.1,31.5,30.10,NNW,342,0.0,0.0,90,0.00,,SKC,0.00,WeatherDisplay:10.37,2013-10-23 05:07:00,
2013-10-23 00:12:00,33.8,31.2,30.10,NNW,331,0.0,0.0,90,0.00,,SKC,0.00,WeatherDisplay:10.37,2013-10-23 05:12:00,
2013-10-23 00:17:00,33.5,30.9,30.09,NNW,331,0.0,0.0,90,0.00,,SKC,0.00,WeatherDisplay:10.37,2013-10-23 05:17:00,
2013-10-23 00:22:00,32.9,30.3,30.09,NNW,331,0.0,0.0,90,0.00,,SKC,0.00,WeatherDisplay:10.37,2013-10-23 05:22:00,
2013-10-23 00:27:00,32.3,29.7,30.09,NNW,332,0.0,0.0,90,0.00,,SKC,0.00,WeatherDisplay:10.37,2013-10-23 05:27:00,
2013-10-23 00:32:00,31.8,29.5,30.10,NNW,331,0.0,0.0,91,0.00,,SKC,0.00,WeatherDisplay:10.37,2013-10-23 05:32:00,
2013-10-23 00:37:00,31.4,29.3,30.10,NNW,331,0.0,0.0,92,0.00,,SKC,0.00,WeatherDisplay:10.37,2013-10-23 05:37:00,
2013-10-23 00:42:00,31.2,29.1,30.10,NNW,332,0.0,0.0,92,0.00,,SKC,0.00,WeatherDisplay:10.37,2013-10-23 05:42:00,
2013-10-23 00:47:00,30.8,29.0,30.10,NNW,331,0.0,0.0,93,0.00,,SKC,0.00,WeatherDisplay:10.37,2013-10-23 05:47:00,
2013-10-23 00:52:00,30.6,28.8,30.10,NNW,332,0.0,0.0,93,0.00,,SKC,0.00,WeatherDisplay:10.37,2013-10-23 05:52:00,
2013-10-23 00:57:00,30.5,29.0,30.10,NNW,332,0.0,0.0,94,0.00,,SKC,0.00,WeatherDisplay:10.37,2013-10-23 05:57:00,
2013-10-23 01:02:00,30.3,28.8,30.10,NNW,331,0.0,0.0,94,0.00,,SKC,0.00,WeatherDisplay:10.37,2013-10-23 06:02:00,
2013-10-23 01:07:00,30.2,28.7,30.10,NNW,332,0.0,0.0,94,0.00,,SKC,0.00,WeatherDisplay:10.37,2013-10-23 06:07:00,
2013-10-23 01:12:00,30.2,28.7,30.10,NNW,331,0.0,0.0,94,0.00,,SKC,0.00,WeatherDisplay:10.37,2013-10-23 06:12:00,
2013-10-23 01:17:00,30.2,28.9,30.10,NNW,332,0.0,0.0,95,0.00,,SKC,0.00,WeatherDisplay:10.37,2013-10-23 06:17:00,
2013-10-23 01:22:00,30.2,28.9,30.10,NNW,332,0.0,0.0,95,0.00,,SKC,0.00,WeatherDisplay:10.37,2013-10-23 06:22:00,
2013-10-23 01:27:00,30.0,28.7,30.10,NNW,331,0.0,0.0,95,0.00,,SKC,0.00,WeatherDisplay:10.37,2013-10-23 06:27:00,
2013-10-23 01:32:00,29.7,28.2,30.10,NNW,331,0.0,0.0,94,0.00,,SKC,0.00,WeatherDisplay:10.37,2013-10-23 06:32:00,
2013-10-23 01:37:00,29.4,28.1,30.10,NNW,332,0.0,0.0,95,0.00,,SKC,0.00,WeatherDisplay:10.37,2013-10-23 06:37:00,
2013-10-23 01:42:00,29.6,28.6,30.10,NNW,331,0.0,0.0,96,0.00,,SKC,0.00,WeatherDisplay:10.37,2013-10-23 06:42:00,
2013-10-23 01:47:00,29.9,28.9,30.11,WNW,302,1.2,1.2,96,0.00,,SKC,0.00,WeatherDisplay:10.37,2013-10-23 06:47:00,
2013-10-23 01:52:00,30.3,29.3,30.11,NW,306,0.0,0.0,96,0.00,,SKC,0.00,WeatherDisplay:10.37,2013-10-23 06:52:00,
2013-10-23 01:57:00,30.5,29.5,30.11,NW,311,0.0,0.0,96,0.00,,SKC,0.00,WeatherDisplay:10.37,2013-10-23 06:57:00,
2013-10-23 02:02:00,30.4,29.4,30.11,NW,308,0.0,0.0,96,0.00,,SKC,0.00,WeatherDisplay:10.37,2013-10-23 07:02:00,
2013-10-23 02:07:00,30.4,29.1,30.11,NW,307,2.3,0.0,95,0.00,,SKC,0.00,WeatherDisplay:10.37,2013-10-23 07:07:00,
2013-10-23 02:12:00,30.4,29.1,30.11,NW,307,0.0,0.0,95,0.00,,SKC,0.00,WeatherDisplay:10.37,2013-10-23 07:12:00,
2013-10-23 02:17:00,30.4,29.1,30.11,NW,307,0.0,0.0,95,0.00,,SKC,0.00,WeatherDisplay:10.37,2013-10-23 07:17:00,
2013-10-23 02:22:00,30.3,29.0,30.11,NW,307,0.0,0.0,95,0.00,,SKC,0.00,WeatherDisplay:10.37,2013-10-23 07:22:00,
2013-10-23 02:27:00,30.3,29.0,30.11,NW,307,0.0,0.0,95,0.00,,SKC,0.00,WeatherDisplay:10.37,2013-10-23 07:27:00,
2013-10-23 02:32:00,30.2,28.9,30.11,NW,308,1.1,1.1,95,0.00,,SKC,0.00,WeatherDisplay:10.37,2013-10-23 07:32:00,
2013-10-23 02:37:00,30.3,29.0,30.11,NW,315,0.0,0.0,95,0.00,,SKC,0.00,WeatherDisplay:10.37,2013-10-23 07:37:00,
2013-10-23 02:42:00,30.5,29.2,30.11,NW,314,1.2,1.2,95,0.00,,SKC,0.00,WeatherDisplay:10.37,2013-10-23 07:42:00,
2013-10-23 02:47:00,30.5,29.2,30.10,NNW,338,2.3,2.3,95,0.00,,SKC,0.00,WeatherDisplay:10.37,2013-10-23 07:47:00,
2013-10-23 02:52:00,30.6,29.3,30.10,NW,313,1.2,1.2,95,0.00,,SKC,0.00,WeatherDisplay:10.37,2013-10-23 07:52:00,
2013-10-23 02:57:00,30.7,29.2,30.11,NW,304,1.2,1.2,94,0.00,,SKC,0.00,WeatherDisplay:10.37,2013-10-23 07:57:00,
2013-10-23 03:02:00,30.4,28.9,30.11,NW,304,1.1,1.1,94,0.00,,SKC,0.00,WeatherDisplay:10.37,2013-10-23 08:02:00,
2013-10-23 03:07:00,30.3,28.8,30.11,WNW,301,0.0,0.0,94,0.00,,SKC,0.00,WeatherDisplay:10.37,2013-10-23 08:07:00,
2013-10-23 03:12:00,30.4,29.1,30.11,NW,307,1.2,1.2,95,0.00,,SKC,0.00,WeatherDisplay:10.37,2013-10-23 08:12:00,
2013-10-23 03:17:00,30.5,29.0,30.11,NW,314,1.2,1.2,94,0.00,,SKC,0.00,WeatherDisplay:10.37,2013-10-23 08:17:00,
2013-10-23 03:22:00,30.5,29.0,30.10,WNW,303,1.2,1.2,94,0.00,,SKC,0.00,WeatherDisplay:10.37,2013-10-23 08:22:00,
2013-10-23 03:27:00,30.4,28.9,30.10,WNW,300,1.2,1.2,94,0.00,,SKC,0.00,WeatherDisplay:10.37,2013-10-23 08:27:00,
2013-10-23 03:32:00,30.4,28.9,30.11,NW,308,1.2,1.2,94,0.00,,SKC,0.00,WeatherDisplay:10.37,2013-10-23 08:32:00,
2013-10-23 03:37:00,30.4,28.9,30.12,WNW,300,3.2,3.2,94,0.00,,SKC,0.00,WeatherDisplay:10.37,2013-10-23 08:37:00,
2013-10-23 03:42:00,30.4,28.9,30.12,WNW,300,3.5,3.5,94,0.00,,SKC,0.00,WeatherDisplay:10.37,2013-10-23 08:42:00,
2013-10-23 03:47:00,30.5,29.0,30.11,WNW,299,3.5,3.5,94,0.00,,SKC,0.00,WeatherDisplay:10.37,2013-10-23 08:47:00,
2013-10-23 03:52:00,30.5,29.0,30.11,NW,309,2.1,2.1,94,0.00,,SKC,0.00,WeatherDisplay:10.37,2013-10-23 08:52:00,
2013-10-23 03:57:00,30.4,28.9,30.11,NW,320,2.3,2.3,94,0.00,,SKC,0.00,WeatherDisplay:10.37,2013-10-23 08:57:00,
2013-10-23 04:02:00,30.4,28.9,30.11,NW,308,1.2,1.2,94,0.00,,SKC,0.00,WeatherDisplay:10.37,2013-10-23 09:02:00,
2013-10-23 04:07:00,30.3,28.8,30.11,NW,308,1.2,0.0,94,0.00,,SKC,0.00,WeatherDisplay:10.37,2013-10-23 09:07:00,
2013-10-23 04:12:00,30.2,28.7,30.11,NW,307,0.0,0.0,94,0.00,,SKC,0.00,WeatherDisplay:10.37,2013-10-23 09:12:00,
2013-10-23 04:17:00,30.2,28.7,30.11,NW,307,1.2,1.2,94,0.00,,SKC,0.00,WeatherDisplay:10.37,2013-10-23 09:17:00,
2013-10-23 04:22:00,30.4,29.1,30.11,NNW,330,2.1,2.1,95,0.00,,SKC,0.00,WeatherDisplay:10.37,2013-10-23 09:22:00,
2013-10-23 04:27:00,30.4,28.9,30.11,WNW,300,1.2,1.2,94,0.00,,SKC,0.00,WeatherDisplay:10.37,2013-10-23 09:27:00,
2013-10-23 04:32:00,30.4,28.9,30.11,NW,316,1.2,1.2,94,0.00,,SKC,0.00,WeatherDisplay:10.37,2013-10-23 09:32:00,
2013-10-23 04:37:00,30.3,28.8,30.11,WNW,302,1.2,1.2,94,0.00,,SKC,0.00,WeatherDisplay:10.37,2013-10-23 09:37:00,
2013-10-23 04:42:00,30.2,28.7,30.11,WNW,302,0.0,0.0,94,0.00,,SKC,0.00,WeatherDisplay:10.37,2013-10-23 09:42:00,
2013-10-23 04:47:00,30.0,28.5,30.10,NW,304,1.2,1.2,94,0.00,,SKC,0.00,WeatherDisplay:10.37,2013-10-23 09:47:00,
2013-10-23 04:52:00,30.0,28.5,30.10,NW,313,0.0,0.0,94,0.00,,SKC,0.00,WeatherDisplay:10.37,2013-10-23 09:52:00,
2013-10-23 04:57:00,30.1,28.8,30.10,NW,323,1.2,1.2,95,0.00,,SKC,0.00,WeatherDisplay:10.37,2013-10-23 09:57:00,
2013-10-23 05:02:00,30.2,28.9,30.10,WNW,300,1.2,1.2,95,0.00,,SKC,0.00,WeatherDisplay:10.37,2013-10-23 10:02:00,
2013-10-23 05:07:00,30.1,28.8,30.10,NW,321,1.2,1.2,95,0.00,,SKC,0.00,WeatherDisplay:10.37,2013-10-23 10:07:00,
2013-10-23 05:12:00,30.3,29.0,30.11,NNW,329,1.2,0.0,95,0.00,,SKC,0.00,WeatherDisplay:10.37,2013-10-23 10:12:00,
2013-10-23 05:17:00,30.3,28.8,30.11,NNW,347,0.0,0.0,94,0.00,,SKC,0.00,WeatherDisplay:10.37,2013-10-23 10:17:00,
2013-10-23 05:22:00,30.3,28.8,30.11,NNW,347,1.2,0.0,94,0.00,,SKC,0.00,WeatherDisplay:10.37,2013-10-23 10:22:00,
2013-10-23 05:27:00,30.3,28.8,30.11,NNW,328,1.2,1.2,94,0.00,,SKC,0.00,WeatherDisplay:10.37,2013-10-23 10:27:00,
2013-10-23 05:32:00,30.5,29.2,30.11,NW,323,1.2,0.0,95,0.00,,SKC,0.00,WeatherDisplay:10.37,2013-10-23 10:32:00,
2013-10-23 05:37:00,30.6,29.3,30.11,NNW,327,0.0,0.0,95,0.00,,SKC,0.00,WeatherDisplay:10.37,2013-10-23 10:37:00,
2013-10-23 05:42:00,30.8,29.5,30.11,NW,323,1.2,1.2,95,0.00,,SKC,0.00,WeatherDisplay:10.37,2013-10-23 10:42:00,
2013-10-23 05:47:00,30.7,29.2,30.11,NW,323,0.0,0.0,94,0.00,,SKC,0.00,WeatherDisplay:10.37,2013-10-23 10:47:00,
2013-10-23 05:52:00,30.7,29.2,30.10,NW,323,0.0,0.0,94,0.00,,SKC,0.00,WeatherDisplay:10.37,2013-10-23 10:52:00,
2013-10-23 05:57:00,30.8,29.5,30.11,WNW,300,1.2,1.2,95,0.00,,SKC,0.00,WeatherDisplay:10.37,2013-10-23 10:57:00,
2013-10-23 06:02:00,30.8,29.3,30.11,WNW,300,0.0,0.0,94,0.00,,SKC,0.00,WeatherDisplay:10.37,2013-10-23 11:02:00,
2013-10-23 06:07:00,30.7,29.2,30.11,WNW,300,0.0,0.0,94,0.00,,SKC,0.00,WeatherDisplay:10.37,2013-10-23 11:07:00,
2013-10-23 06:12:00,30.3,28.8,30.11,WNW,300,0.0,0.0,94,0.00,,SKC,0.00,WeatherDisplay:10.37,2013-10-23 11:12:00,
2013-10-23 06:17:00,30.1,28.6,30.11,NNW,332,1.2,1.2,94,0.00,,SKC,0.00,WeatherDisplay:10.37,2013-10-23 11:17:00,
2013-10-23 06:22:00,30.2,28.9,30.11,NNW,331,1.2,1.2,95,0.00,,SKC,0.00,WeatherDisplay:10.37,2013-10-23 11:22:00,
2013-10-23 06:27:00,30.3,29.0,30.11,NNW,340,0.0,0.0,95,0.00,,SKC,0.00,WeatherDisplay:10.37,2013-10-23 11:27:00,
2013-10-23 06:32:00,30.1,28.6,30.11,NNW,340,0.0,0.0,94,0.00,,SKC,0.00,WeatherDisplay:10.37,2013-10-23 11:32:00,
2013-10-23 06:37:00,29.9,28.6,30.11,WNW,286,0.0,0.0,95,0.00,,SKC,0.00,WeatherDisplay:10.37,2013-10-23 11:37:00,
2013-10-23 06:42:00,29.7,28.4,30.11,WNW,286,0.0,0.0,95,0.00,,SKC,0.00,WeatherDisplay:10.37,2013-10-23 11:42:00,
2013-10-23 06:47:00,29.4,28.1,30.11,WNW,286,0.0,0.0,95,0.00,,SKC,0.00,WeatherDisplay:10.37,2013-10-23 11:47:00,
2013-10-23 06:52:00,28.9,27.4,30.11,ENE,72,0.0,0.0,94,0.00,,SKC,0.00,WeatherDisplay:10.37,2013-10-23 11:52:00,
2013-10-23 06:57:00,28.5,27.0,30.11,East,79,1.2,1.2,94,0.00,,SKC,0.00,WeatherDisplay:10.37,2013-10-23 11:57:00,
2013-10-23 07:02:00,28.0,26.5,30.11,ENE,77,1.2,1.2,94,0.00,,SKC,0.00,WeatherDisplay:10.37,2013-10-23 12:02:00,
2013-10-23 07:07:00,28.0,26.8,30.11,ENE,78,0.0,0.0,95,0.00,,SKC,0.00,WeatherDisplay:10.37,2013-10-23 12:07:00,
2013-10-23 07:12:00,27.8,26.6,30.12,ENE,77,0.0,0.0,95,0.00,,SKC,0.00,WeatherDisplay:10.37,2013-10-23 12:12:00,
2013-10-23 07:17:00,27.6,26.4,30.12,ENE,78,0.0,0.0,95,0.00,,SKC,0.00,WeatherDisplay:10.37,2013-10-23 12:17:00,
2013-10-23 07:22:00,27.4,26.2,30.11,ENE,78,0.0,0.0,95,0.00,,SKC,0.00,WeatherDisplay:10.37,2013-10-23 12:22:00,
2013-10-23 07:27:00,27.6,26.6,30.11,SSW,198,1.2,1.2,96,0.00,,SKC,0.00,WeatherDisplay:10.37,2013-10-23 12:27:00,
2013-10-23 07:32:00,27.8,26.8,30.11,SW,214,1.2,1.2,96,0.00,,SKC,0.00,WeatherDisplay:10.37,2013-10-23 12:32:00,
2013-10-23 07:37:00,27.7,26.7,30.11,SW,214,0.0,0.0,96,0.00,,SKC,0.00,WeatherDisplay:10.37,2013-10-23 12:37:00,
2013-10-23 07:42:00,27.5,26.3,30.11,SW,214,0.0,0.0,95,0.00,,SKC,0.00,WeatherDisplay:10.37,2013-10-23 12:42:00,
2013-10-23 07:47:00,27.4,26.2,30.11,SW,214,0.0,0.0,95,0.00,,SKC,0.00,WeatherDisplay:10.37,2013-10-23 12:47:00,
2013-10-23 07:52:00,27.3,26.1,30.12,SW,214,0.0,0.0,95,0.00,,SKC,0.00,WeatherDisplay:10.37,2013-10-23 12:52:00,
2013-10-23 07:57:00,27.5,26.5,30.12,SW,214,0.0,0.0,96,0.00,,SKC,0.00,WeatherDisplay:10.37,2013-10-23 12:57:00,
2013-10-23 08:02:00,27.4,26.4,30.12,East,82,1.2,1.2,96,0.00,,SKC,0.00,WeatherDisplay:10.37,2013-10-23 13:02:00,
2013-10-23 08:07:00,27.4,26.2,30.13,East,82,0.0,0.0,95,0.00,,SKC,0.00,WeatherDisplay:10.37,2013-10-23 13:07:00,
2013-10-23 08:12:00,27.5,26.5,30.13,East,82,0.0,0.0,96,0.00,,SKC,0.00,WeatherDisplay:10.37,2013-10-23 13:12:00,
2013-10-23 08:17:00,27.8,26.8,30.13,East,82,0.0,0.0,96,0.00,,SKC,0.00,WeatherDisplay:10.37,2013-10-23 13:17:00,
2013-10-23 08:22:00,28.2,27.2,30.13,East,82,0.0,0.0,96,0.00,,SKC,0.00,WeatherDisplay:10.37,2013-10-23 13:22:00,
2013-10-23 08:27:00,28.7,27.7,30.13,East,82,0.0,0.0,96,0.00,,SKC,0.00,WeatherDisplay:10.37,2013-10-23 13:27:00,
2013-10-23 08:32:00,29.2,28.5,30.13,East,82,0.0,0.0,97,0.00,,SKC,0.00,WeatherDisplay:10.37,2013-10-23 13:32:00,
2013-10-23 08:37:00,29.7,29.0,30.13,East,82,0.0,0.0,97,0.00,,SKC,0.00,WeatherDisplay:10.37,2013-10-23 13:37:00,
2013-10-23 08:42:00,30.2,29.5,30.13,East,82,0.0,0.0,97,0.00,,SKC,0.00,WeatherDisplay:10.37,2013-10-23 13:42:00,
2013-10-23 08:47:00,30.6,29.9,30.13,East,82,0.0,0.0,97,0.00,,SKC,0.00,WeatherDisplay:10.37,2013-10-23 13:47:00,
2013-10-23 08:52:00,30.9,30.1,30.13,East,82,0.0,0.0,97,0.00,,SKC,0.00,WeatherDisplay:10.37,2013-10-23 13:52:00,
2013-10-23 08:57:00,31.4,30.6,30.12,East,82,1.2,1.2,97,0.00,,SKC,0.00,WeatherDisplay:10.37,2013-10-23 13:57:00,
2013-10-23 09:02:00,31.5,30.7,30.13,East,79,0.0,0.0,97,0.00,,SKC,0.00,WeatherDisplay:10.37,2013-10-23 14:02:00,
2013-10-23 09:07:00,31.7,30.9,30.13,East,79,0.0,0.0,97,0.00,,SKC,0.00,WeatherDisplay:10.37,2013-10-23 14:07:00,
2013-10-23 09:12:00,32.2,31.4,30.13,East,79,0.0,0.0,97,0.00,,SKC,0.00,WeatherDisplay:10.37,2013-10-23 14:12:00,
2013-10-23 09:17:00,32.7,31.9,30.13,East,79,0.0,0.0,97,0.00,,SKC,0.00,WeatherDisplay:10.37,2013-10-23 14:17:00,
2013-10-23 09:22:00,33.1,32.3,30.13,SE,146,0.0,0.0,97,0.00,,SKC,0.00,WeatherDisplay:10.37,2013-10-23 14:22:00,
2013-10-23 09:27:00,33.4,32.4,30.13,SSE,156,0.0,0.0,96,0.00,,SKC,0.00,WeatherDisplay:10.37,2013-10-23 14:27:00,
2013-10-23 09:32:00,33.7,32.7,30.13,SSE,148,0.0,0.0,96,0.00,,SKC,0.00,WeatherDisplay:10.37,2013-10-23 14:32:00,
2013-10-23 09:37:00,34.0,33.0,30.12,SSE,167,1.1,1.1,96,0.00,,SKC,0.00,WeatherDisplay:10.37,2013-10-23 14:37:00,
2013-10-23 09:42:00,34.5,33.5,30.12,SSE,163,2.1,2.1,96,0.00,,SKC,0.00,WeatherDisplay:10.37,2013-10-23 14:42:00,
2013-10-23 09:47:00,34.9,33.6,30.13,SE,143,2.3,0.0,95,0.00,,SKC,0.00,WeatherDisplay:10.37,2013-10-23 14:47:00,
2013-10-23 09:52:00,35.1,33.8,30.12,SSW,201,2.3,2.3,95,0.00,,SKC,0.00,WeatherDisplay:10.37,2013-10-23 14:52:00,
2013-10-23 09:57:00,35.5,34.2,30.12,SE,134,0.0,0.0,95,0.00,,SKC,0.00,WeatherDisplay:10.37,2013-10-23 14:57:00,
2013-10-23 10:02:00,36.1,34.5,30.12,SSE,162,2.3,2.3,94,0.00,,SKC,0.00,WeatherDisplay:10.37,2013-10-23 15:02:00,
2013-10-23 10:07:00,36.3,34.5,30.12,SSW,193,3.5,3.5,93,0.00,,SKC,0.00,WeatherDisplay:10.37,2013-10-23 15:07:00,
2013-10-23 10:12:00,36.7,34.9,30.12,SE,126,1.2,1.2,93,0.00,,SKC,0.00,WeatherDisplay:10.37,2013-10-23 15:12:00,
2013-10-23 10:17:00,37.0,35.2,30.12,South,180,2.1,2.1,93,0.00,,SKC,0.00,WeatherDisplay:10.37,2013-10-23 15:17:00,
2013-10-23 10:22:00,37.5,35.7,30.12,SSE,152,2.3,2.3,93,0.00,,SKC,0.00,WeatherDisplay:10.37,2013-10-23 15:22:00,
2013-10-23 10:27:00,38.0,36.2,30.12,South,184,2.3,2.3,93,0.00,,SKC,0.00,WeatherDisplay:10.37,2013-10-23 15:27:00,
2013-10-23 10:32:00,38.4,36.3,30.12,SSE,166,3.5,3.5,92,0.00,,SKC,0.00,WeatherDisplay:10.37,2013-10-23 15:32:00,
2013-10-23 10:37:00,38.8,36.7,30.12,South,174,3.5,3.5,92,0.00,,SKC,0.00,WeatherDisplay:10.37,2013-10-23 15:37:00,
2013-10-23 10:42:00,39.5,37.4,30.12,SSW,200,2.3,2.3,92,0.00,,SKC,0.00,WeatherDisplay:10.37,2013-10-23 15:42:00,
2013-10-23 10:47:00,40.0,37.6,30.12,SSE,152,2.3,2.3,91,0.00,,SKC,0.00,WeatherDisplay:10.37,2013-10-23 15:47:00,
2013-10-23 10:52:00,40.3,37.6,30.12,ESE,104,1.2,1.2,90,0.00,,SKC,0.00,WeatherDisplay:10.37,2013-10-23 15:52:00,
2013-10-23 10:57:00,40.8,38.4,30.11,ESE,107,2.3,2.3,91,0.00,,SKC,0.00,WeatherDisplay:10.37,2013-10-23 15:57:00,
2013-10-23 11:02:00,41.4,38.7,30.11,ESE,117,3.5,3.5,90,0.00,,SKC,0.00,WeatherDisplay:10.37,2013-10-23 16:02:00,
2013-10-23 11:07:00,42.1,39.1,30.11,SSE,151,5.8,5.8,89,0.00,,SKC,0.00,WeatherDisplay:10.37,2013-10-23 16:07:00,
2013-10-23 11:12:00,42.5,39.5,30.11,SE,126,4.6,4.6,89,0.00,,SKC,0.00,WeatherDisplay:10.37,2013-10-23 16:12:00,
2013-10-23 11:17:00,42.7,39.1,30.10,ESE,117,5.8,5.8,87,0.00,,SKC,0.00,WeatherDisplay:10.37,2013-10-23 16:17:00,
2013-10-23 11:22:00,43.1,39.5,30.10,SSE,152,4.2,4.2,87,0.00,,SKC,0.00,WeatherDisplay:10.37,2013-10-23 16:22:00,
2013-10-23 11:27:00,43.6,38.8,30.10,SSE,153,3.5,3.5,83,0.00,,SKC,0.00,WeatherDisplay:10.37,2013-10-23 16:27:00,
2013-10-23 11:32:00,44.2,38.1,30.10,SSW,210,5.3,5.3,79,0.00,,SKC,0.00,WeatherDisplay:10.37,2013-10-23 16:32:00,
2013-10-23 11:37:00,44.5,38.4,30.09,SSE,160,5.3,5.3,79,0.00,,SKC,0.00,WeatherDisplay:10.37,2013-10-23 16:37:00,
2013-10-23 11:42:00,45.1,38.3,30.08,SSE,152,6.9,6.9,77,0.00,,SKC,0.00,WeatherDisplay:10.37,2013-10-23 16:42:00,
2013-10-23 11:47:00,45.7,37.5,30.08,South,176,9.5,9.5,73,0.00,,SKC,0.00,WeatherDisplay:10.37,2013-10-23 16:47:00,
2013-10-23 11:52:00,46.1,36.9,30.08,SW,214,7.4,7.4,70,0.00,,SKC,0.00,WeatherDisplay:10.37,2013-10-23 16:52:00,
2013-10-23 11:57:00,46.3,36.3,30.08,SSW,203,9.5,9.5,68,0.00,,SKC,0.00,WeatherDisplay:10.37,2013-10-23 16:57:00,
2013-10-23 12:02:00,46.5,35.7,30.07,SE,146,9.5,9.5,66,0.00,,SKC,0.00,WeatherDisplay:10.37,2013-10-23 17:02:00,
2013-10-23 12:07:00,46.8,36.0,30.07,South,169,6.9,6.9,66,0.00,,SKC,0.00,WeatherDisplay:10.37,2013-10-23 17:07:00,
2013-10-23 12:12:00,47.4,37.4,30.06,SW,219,4.6,4.6,68,0.00,,SKC,0.00,WeatherDisplay:10.37,2013-10-23 17:12:00,
2013-10-23 12:17:00,47.9,37.1,30.06,SSE,165,8.5,8.5,66,0.00,,SKC,0.00,WeatherDisplay:10.37,2013-10-23 17:17:00,
2013-10-23 12:22:00,48.2,35.8,30.06,SW,214,8.5,8.5,62,0.00,,SKC,0.00,WeatherDisplay:10.37,2013-10-23 17:22:00,
2013-10-23 12:27:00,48.7,36.3,30.06,SSE,166,6.9,6.9,62,0.00,,SKC,0.00,WeatherDisplay:10.37,2013-10-23 17:27:00,
2013-10-23 12:32:00,49.1,34.9,30.05,SSW,195,8.5,8.5,58,0.00,,SKC,0.00,WeatherDisplay:10.37,2013-10-23 17:32:00,
2013-10-23 12:37:00,49.3,36.0,30.05,South,176,6.9,6.9,60,0.00,,SKC,0.00,WeatherDisplay:10.37,2013-10-23 17:37:00,
2013-10-23 12:42:00,49.5,34.9,30.05,South,169,8.1,8.1,57,0.00,,SKC,0.00,WeatherDisplay:10.37,2013-10-23 17:42:00,
2013-10-23 12:47:00,49.4,35.2,30.05,ESE,120,8.5,8.5,58,0.00,,SKC,0.00,WeatherDisplay:10.37,2013-10-23 17:47:00,
2013-10-23 12:52:00,49.5,35.3,30.05,South,171,8.5,8.5,58,0.00,,SKC,0.00,WeatherDisplay:10.37,2013-10-23 17:52:00,
2013-10-23 12:57:00,49.3,34.7,30.05,South,176,9.5,9.5,57,0.00,,SKC,0.00,WeatherDisplay:10.37,2013-10-23 17:57:00,
2013-10-23 13:02:00,49.2,35.0,30.05,SSE,149,8.5,8.5,58,0.00,,SKC,0.00,WeatherDisplay:10.37,2013-10-23 18:02:00,
2013-10-23 13:07:00,49.2,35.5,30.04,SW,220,8.1,8.1,59,0.00,,SKC,0.00,WeatherDisplay:10.37,2013-10-23 18:07:00,
2013-10-23 13:12:00,49.5,35.3,30.04,SW,215,9.5,9.5,58,0.00,,SKC,0.00,WeatherDisplay:10.37,2013-10-23 18:12:00,
2013-10-23 13:17:00,49.5,35.3,30.04,SSW,202,8.5,8.5,58,0.00,,SKC,0.00,WeatherDisplay:10.37,2013-10-23 18:17:00,
2013-10-23 13:22:00,49.6,35.0,30.04,South,181,10.6,10.6,57,0.00,,SKC,0.00,WeatherDisplay:10.37,2013-10-23 18:22:00,
2013-10-23 13:27:00,49.4,35.2,30.04,SSE,164,6.9,6.9,58,0.00,,SKC,0.00,WeatherDisplay:10.37,2013-10-23 18:27:00,
2013-10-23 13:32:00,49.6,35.4,30.04,South,174,8.5,8.5,58,0.00,,SKC,0.00,WeatherDisplay:10.37,2013-10-23 18:32:00,
2013-10-23 13:37:00,49.6,35.0,30.04,SW,224,7.4,7.4,57,0.00,,SKC,0.00,WeatherDisplay:10.37,2013-10-23 18:37:00,
2013-10-23 13:42:00,49.3,34.7,30.05,SSW,203,7.4,7.4,57,0.00,,SKC,0.00,WeatherDisplay:10.37,2013-10-23 18:42:00,
2013-10-23 13:47:00,49.2,35.0,30.04,SW,215,7.4,7.4,58,0.00,,SKC,0.00,WeatherDisplay:10.37,2013-10-23 18:47:00,
2013-10-23 13:52:00,49.0,35.3,30.04,SSW,208,3.5,3.5,59,0.00,,SKC,0.00,WeatherDisplay:10.37,2013-10-23 18:52:00,
2013-10-23 13:57:00,49.1,35.4,30.03,SW,214,5.8,5.8,59,0.00,,SKC,0.00,WeatherDisplay:10.37,2013-10-23 18:57:00,
2013-10-23 14:02:00,49.1,35.8,30.04,SSW,211,4.6,4.6,60,0.00,,SKC,0.00,WeatherDisplay:10.37,2013-10-23 19:02:00,
2013-10-23 14:07:00,49.3,35.1,30.05,SSW,207,3.2,3.2,58,0.00,,SKC,0.00,WeatherDisplay:10.37,2013-10-23 19:07:00,
2013-10-23 14:12:00,49.6,35.4,30.04,SSE,162,3.2,3.2,58,0.00,,SKC,0.00,WeatherDisplay:10.37,2013-10-23 19:12:00,
2013-10-23 14:17:00,50.2,36.4,30.04,WNW,300,2.3,2.3,59,0.00,,SKC,0.00,WeatherDisplay:10.37,2013-10-23 19:17:00,
2013-10-23 14:22:00,50.9,36.2,30.03,SW,234,9.5,9.5,57,0.00,,SKC,0.00,WeatherDisplay:10.37,2013-10-23 19:22:00,
2013-10-23 14:27:00,51.8,36.6,30.03,SSE,148,5.8,5.8,56,0.00,,SKC,0.00,WeatherDisplay:10.37,2013-10-23 19:27:00,
2013-10-23 14:32:00,52.0,38.1,30.03,SW,226,2.3,2.3,59,0.00,,SKC,0.00,WeatherDisplay:10.37,2013-10-23 19:32:00,
2013-10-23 14:37:00,52.0,35.9,30.04,WNW,290,6.9,6.9,54,0.00,,SKC,0.00,WeatherDisplay:10.37,2013-10-23 19:37:00,
2013-10-23 14:42:00,51.8,35.7,30.04,North,354,1.2,1.2,54,0.00,,SKC,0.00,WeatherDisplay:10.37,2013-10-23 19:42:00,
2013-10-23 14:47:00,51.8,37.0,30.03,WSW,254,0.0,0.0,57,0.00,,SKC,0.00,WeatherDisplay:10.37,2013-10-23 19:47:00,
2013-10-23 14:52:00,51.8,35.7,30.04,West,272,3.5,3.5,54,0.00,,SKC,0.00,WeatherDisplay:10.37,2013-10-23 19:52:00,
2013-10-23 14:57:00,51.6,35.9,30.04,South,176,0.0,0.0,55,0.00,,SKC,0.00,WeatherDisplay:10.37,2013-10-23 19:57:00,
2013-10-23 15:02:00,51.8,36.6,30.03,SSE,147,0.0,0.0,56,0.00,,SKC,0.00,WeatherDisplay:10.37,2013-10-23 20:02:00,
2013-10-23 15:07:00,51.8,36.1,30.04,NW,317,4.2,4.2,55,0.00,,SKC,0.00,WeatherDisplay:10.37,2013-10-23 20:07:00,
2013-10-23 15:12:00,51.4,35.8,30.04,WNW,297,0.0,0.0,55,0.00,,SKC,0.00,WeatherDisplay:10.37,2013-10-23 20:12:00,
2013-10-23 15:17:00,51.4,35.8,30.03,ENE,58,1.2,0.0,55,0.00,,SKC,0.00,WeatherDisplay:10.37,2013-10-23 20:17:00,
2013-10-23 15:22:00,51.4,36.7,30.04,ENE,57,0.0,0.0,57,0.00,,SKC,0.00,WeatherDisplay:10.37,2013-10-23 20:22:00,
2013-10-23 15:27:00,51.4,36.2,30.04,NNE,30,1.2,0.0,56,0.00,,SKC,0.00,WeatherDisplay:10.37,2013-10-23 20:27:00,
2013-10-23 15:32:00,51.4,36.7,30.04,NNE,23,1.2,1.2,57,0.00,,SKC,0.00,WeatherDisplay:10.37,2013-10-23 20:32:00,
2013-10-23 15:37:00,51.5,37.2,30.04,NNW,336,4.6,4.6,58,0.00,,SKC,0.00,WeatherDisplay:10.37,2013-10-23 20:37:00,
2013-10-23 15:42:00,51.6,37.3,30.04,NNW,332,3.5,3.5,58,0.00,,SKC,0.00,WeatherDisplay:10.37,2013-10-23 20:42:00,
2013-10-23 15:47:00,51.7,37.4,30.04,NNE,15,3.5,3.5,58,0.00,,SKC,0.00,WeatherDisplay:10.37,2013-10-23 20:47:00,
2013-10-23 15:52:00,51.8,37.5,30.04,North,8,4.2,4.2,58,0.00,,SKC,0.00,WeatherDisplay:10.37,2013-10-23 20:52:00,
2013-10-23 15:57:00,51.6,37.3,30.04,NE,53,3.5,3.5,58,0.00,,SKC,0.00,WeatherDisplay:10.37,2013-10-23 20:57:00,
2013-10-23 16:02:00,51.4,38.0,30.04,ENE,68,3.5,3.5,60,0.00,,SKC,0.00,WeatherDisplay:10.37,2013-10-23 21:02:00,
2013-10-23 16:07:00,51.3,37.4,30.03,East,86,1.2,1.2,59,0.00,,SKC,0.00,WeatherDisplay:10.37,2013-10-23 21:07:00,
2013-10-23 16:12:00,51.3,37.4,30.03,East,86,3.5,3.5,59,0.00,,SKC,0.00,WeatherDisplay:10.37,2013-10-23 21:12:00,
2013-10-23 16:17:00,51.2,37.8,30.04,East,91,3.5,3.5,60,0.00,,SKC,0.00,WeatherDisplay:10.37,2013-10-23 21:17:00,
2013-10-23 16:22:00,51.2,37.8,30.04,East,83,2.3,2.3,60,0.00,,SKC,0.00,WeatherDisplay:10.37,2013-10-23 21:22:00,
2013-10-23 16:27:00,51.2,37.4,30.04,ENE,65,3.2,3.2,59,0.00,,SKC,0.00,WeatherDisplay:10.37,2013-10-23 21:27:00,
2013-10-23 16:32:00,51.3,37.9,30.04,ENE,77,2.3,2.3,60,0.00,,SKC,0.00,WeatherDisplay:10.37,2013-10-23 21:32:00,
2013-10-23 16:37:00,51.3,37.9,30.04,NE,38,3.5,3.5,60,0.00,,SKC,0.00,WeatherDisplay:10.37,2013-10-23 21:37:00,
2013-10-23 16:42:00,51.4,37.5,30.04,ENE,63,3.5,3.5,59,0.00,,SKC,0.00,WeatherDisplay:10.37,2013-10-23 21:42:00,
2013-10-23 16:47:00,51.5,38.1,30.04,NNW,327,4.6,4.6,60,0.00,,SKC,0.00,WeatherDisplay:10.37,2013-10-23 21:47:00,
2013-10-23 16:52:00,51.6,38.2,30.05,ENE,63,2.3,2.3,60,0.00,,SKC,0.00,WeatherDisplay:10.37,2013-10-23 21:52:00,
2013-10-23 16:57:00,51.6,37.3,30.04,ENE,69,3.5,3.5,58,0.00,,SKC,0.00,WeatherDisplay:10.37,2013-10-23 21:57:00,
2013-10-23 17:02:00,51.5,37.6,30.04,ENE,70,4.6,4.6,59,0.00,,SKC,0.00,WeatherDisplay:10.37,2013-10-23 22:02:00,
2013-10-23 17:07:00,51.5,37.6,30.05,ENE,70,3.5,3.5,59,0.00,,SKC,0.00,WeatherDisplay:10.37,2013-10-23 22:07:00,
2013-10-23 17:12:00,51.4,37.5,30.05,East,89,4.6,4.6,59,0.00,,SKC,0.00,WeatherDisplay:10.37,2013-10-23 22:12:00,
2013-10-23 17:17:00,51.7,37.4,30.05,NE,44,5.8,5.8,58,0.00,,SKC,0.00,WeatherDisplay:10.37,2013-10-23 22:17:00,
2013-10-23 17:22:00,51.9,37.6,30.05,ENE,60,4.6,4.6,58,0.00,,SKC,0.00,WeatherDisplay:10.37,2013-10-23 22:22:00,
2013-10-23 17:27:00,51.6,37.3,30.05,NE,56,5.3,5.3,58,0.00,,SKC,0.00,WeatherDisplay:10.37,2013-10-23 22:27:00,
2013-10-23 17:32:00,51.3,37.9,30.06,ENE,59,4.6,4.6,60,0.00,,SKC,0.00,WeatherDisplay:10.37,2013-10-23 22:32:00,
2013-10-23 17:37:00,50.7,38.6,30.06,ENE,68,8.5,8.5,63,0.00,,SKC,0.00,WeatherDisplay:10.37,2013-10-23 22:37:00,
2013-10-23 17:42:00,50.1,38.8,30.06,NE,51,5.8,5.8,65,0.00,,SKC,0.00,WeatherDisplay:10.37,2013-10-23 22:42:00,
2013-10-23 17:47:00,49.5,39.0,30.07,NE,39,7.4,7.4,67,0.00,,SKC,0.00,WeatherDisplay:10.37,2013-10-23 22:47:00,
2013-10-23 17:52:00,48.8,38.7,30.07,NE,39,6.9,6.9,68,0.00,,SKC,0.00,WeatherDisplay:10.37,2013-10-23 22:52:00,
2013-10-23 17:57:00,48.0,38.3,30.07,ENE,60,5.8,5.8,69,0.00,,SKC,0.00,WeatherDisplay:10.37,2013-10-23 22:57:00,
2013-10-23 18:02:00,47.4,38.1,30.08,NE,41,3.5,3.5,70,0.00,,SKC,0.00,WeatherDisplay:10.37,2013-10-23 23:02:00,
2013-10-23 18:07:00,47.0,37.7,30.08,NNW,341,5.8,5.8,70,0.00,,SKC,0.00,WeatherDisplay:10.37,2013-10-23 23:07:00,
2013-10-23 18:12:00,46.6,37.7,30.08,NE,37,6.4,6.4,71,0.00,,SKC,0.00,WeatherDisplay:10.37,2013-10-23 23:12:00,
2013-10-23 18:17:00,46.1,37.6,30.08,ENE,69,1.2,0.0,72,0.00,,SKC,0.00,WeatherDisplay:10.37,2013-10-23 23:17:00,
2013-10-23 18:22:00,45.6,37.4,30.09,North,6,1.2,1.2,73,0.00,,SKC,0.00,WeatherDisplay:10.37,2013-10-23 23:22:00,
2013-10-23 18:27:00,45.2,37.1,30.09,North,6,3.2,3.2,73,0.00,,SKC,0.00,WeatherDisplay:10.37,2013-10-23 23:27:00,
2013-10-23 18:32:00,45.0,37.2,30.10,North,358,3.5,3.5,74,0.00,,SKC,0.00,WeatherDisplay:10.37,2013-10-23 23:32:00,
2013-10-23 18:37:00,44.9,37.1,30.10,NNE,18,3.5,3.5,74,0.00,,SKC,0.00,WeatherDisplay:10.37,2013-10-23 23:37:00,
2013-10-23 18:42:00,45.0,37.6,30.10,East,80,1.2,1.2,75,0.00,,SKC,0.00,WeatherDisplay:10.37,2013-10-23 23:42:00,
2013-10-23 18:47:00,45.0,37.2,30.10,North,359,5.3,5.3,74,0.00,,SKC,0.00,WeatherDisplay:10.37,2013-10-23 23:47:00,
2013-10-23 18:52:00,44.7,36.9,30.10,NNE,13,4.6,4.6,74,0.00,,SKC,0.00,WeatherDisplay:10.37,2013-10-23 23:52:00,
2013-10-23 18:57:00,44.5,37.1,30.11,NNW,339,5.8,5.8,75,0.00,,SKC,0.00,WeatherDisplay:10.37,2013-10-23 23:57:00,
2013-10-23 19:02:00,44.4,37.0,30.11,NNE,15,5.3,5.3,75,0.00,CLR,SKC,0.00,WeatherDisplay:10.37,2013-10-24 00:02:00,
2013-10-23 19:07:00,44.2,36.8,30.12,NNW,341,5.8,5.8,75,0.00,CLR,SKC,0.00,WeatherDisplay:10.37,2013-10-24 00:07:00,
2013-10-23 19:12:00,43.9,36.5,30.12,North,11,5.3,5.3,75,0.00,CLR,SKC,0.00,WeatherDisplay:10.37,2013-10-24 00:12:00,
2013-10-23 19:17:00,43.7,36.6,30.12,North,6,5.8,5.8,76,0.00,CLR,SKC,0.00,WeatherDisplay:10.37,2013-10-24 00:17:00,
2013-10-23 19:22:00,43.6,36.9,30.13,North,350,6.9,6.9,77,0.00,CLR,SKC,0.00,WeatherDisplay:10.37,2013-10-24 00:22:00,
2013-10-23 19:27:00,43.6,37.2,30.13,NNE,19,6.4,6.4,78,0.00,CLR,SKC,0.00,WeatherDisplay:10.37,2013-10-24 00:27:00,
2013-10-23 19:32:00,43.7,37.6,30.14,NW,312,5.8,5.8,79,0.00,CLR,SKC,0.00,WeatherDisplay:10.37,2013-10-24 00:32:00,
2013-10-23 19:37:00,43.7,37.6,30.14,NNW,344,6.9,6.9,79,0.00,CLR,SKC,0.00,WeatherDisplay:10.37,2013-10-24 00:37:00,
2013-10-23 19:42:00,43.8,38.0,30.14,NNE,17,9.5,9.5,80,0.00,CLR,SKC,0.00,WeatherDisplay:10.37,2013-10-24 00:42:00,
2013-10-23 19:47:00,43.9,38.4,30.15,NE,54,9.2,9.2,81,0.00,CLR,SKC,0.00,WeatherDisplay:10.37,2013-10-24 00:47:00,
2013-10-23 19:52:00,44.0,38.5,30.15,NNE,27,8.5,8.5,81,0.00,CLR,SKC,0.00,WeatherDisplay:10.37,2013-10-24 00:52:00,
2013-10-23 19:57:00,44.0,38.5,30.15,NNW,341,9.5,9.5,81,0.00,CLR,SKC,0.00,WeatherDisplay:10.37,2013-10-24 00:57:00,
2013-10-23 20:02:00,43.9,38.4,30.15,NNW,327,7.4,7.4,81,0.00,CLR,SKC,0.00,WeatherDisplay:10.37,2013-10-24 01:02:00,
2013-10-23 20:07:00,43.9,38.4,30.15,NNE,23,9.5,9.5,81,0.00,CLR,SKC,0.00,WeatherDisplay:10.37,2013-10-24 01:07:00,
2013-10-23 20:12:00,43.9,38.4,30.16,NNE,21,9.5,9.5,81,0.00,CLR,SKC,0.00,WeatherDisplay:10.37,2013-10-24 01:12:00,
2013-10-23 20:17:00,43.7,38.6,30.16,North,7,7.4,7.4,82,0.00,CLR,SKC,0.00,WeatherDisplay:10.37,2013-10-24 01:17:00,
2013-10-23 20:22:00,43.7,38.6,30.16,North,355,11.5,11.5,82,0.00,CLR,SKC,0.00,WeatherDisplay:10.37,2013-10-24 01:22:00,
2013-10-23 20:27:00,43.6,38.5,30.16,NNW,331,8.1,8.1,82,0.00,CLR,SKC,0.00,WeatherDisplay:10.37,2013-10-24 01:27:00,
2013-10-23 20:32:00,43.5,38.4,30.16,NNW,340,6.9,6.9,82,0.00,CLR,SKC,0.00,WeatherDisplay:10.37,2013-10-24 01:32:00,
2013-10-23 20:37:00,43.4,38.3,30.17,NNW,330,6.9,6.9,82,0.00,CLR,SKC,0.00,WeatherDisplay:10.37,2013-10-24 01:37:00,
2013-10-23 20:42:00,43.4,38.3,30.17,NW,323,8.1,8.1,82,0.00,CLR,SKC,0.00,WeatherDisplay:10.37,2013-10-24 01:42:00,
2013-10-23 20:47:00,43.4,38.6,30.17,NNW,330,5.8,5.8,83,0.00,CLR,SKC,0.00,WeatherDisplay:10.37,2013-10-24 01:47:00,
2013-10-23 20:52:00,43.3,38.5,30.17,NNW,338,5.8,5.8,83,0.00,CLR,SKC,0.00,WeatherDisplay:10.37,2013-10-24 01:52:00,
2013-10-23 20:57:00,43.2,38.4,30.17,NW,323,4.6,4.6,83,0.00,CLR,SKC,0.00,WeatherDisplay:10.37,2013-10-24 01:57:00,
2013-10-23 21:02:00,43.1,38.3,30.17,NW,326,4.6,4.6,83,0.00,CLR,SKC,0.00,WeatherDisplay:10.37,2013-10-24 02:02:00,
2013-10-23 21:07:00,43.1,38.6,30.17,NW,307,3.5,3.5,84,0.00,CLR,SKC,0.00,WeatherDisplay:10.37,2013-10-24 02:07:00,
2013-10-23 21:12:00,43.0,38.5,30.17,NNW,339,5.8,5.8,84,0.00,CLR,SKC,0.00,WeatherDisplay:10.37,2013-10-24 02:12:00,
2013-10-23 21:17:00,43.0,38.5,30.17,NNW,333,3.5,3.5,84,0.00,CLR,SKC,0.00,WeatherDisplay:10.37,2013-10-24 02:17:00,
2013-10-23 21:22:00,43.0,38.5,30.17,North,1,4.6,4.6,84,0.00,CLR,SKC,0.00,WeatherDisplay:10.37,2013-10-24 02:22:00,
2013-10-23 21:27:00,42.9,38.4,30.17,North,352,6.4,6.4,84,0.00,CLR,SKC,0.00,WeatherDisplay:10.37,2013-10-24 02:27:00,
2013-10-23 21:32:00,43.0,38.5,30.17,NW,320,3.5,3.5,84,0.00,CLR,SKC,0.00,WeatherDisplay:10.37,2013-10-24 02:32:00,
2013-10-23 21:37:00,43.0,38.2,30.17,NNW,330,4.6,4.6,83,0.00,CLR,SKC,0.00,WeatherDisplay:10.37,2013-10-24 02:37:00,
2013-10-23 21:42:00,43.0,38.2,30.18,NNW,335,5.3,5.3,83,0.00,CLR,SKC,0.00,WeatherDisplay:10.37,2013-10-24 02:42:00,
2013-10-23 21:47:00,42.9,38.4,30.17,NNW,344,4.6,4.6,84,0.00,CLR,SKC,0.00,WeatherDisplay:10.37,2013-10-24 02:47:00,
2013-10-23 21:52:00,43.0,38.5,30.17,North,356,3.5,3.5,84,0.00,CLR,SKC,0.00,WeatherDisplay:10.37,2013-10-24 02:52:00,
2013-10-23 21:57:00,42.9,38.4,30.17,NW,323,4.2,4.2,84,0.00,CLR,SKC,0.00,WeatherDisplay:10.37,2013-10-24 02:57:00,
2013-10-23 22:02:00,42.8,38.0,30.17,NNW,331,4.6,4.6,83,0.00,CLR,SKC,0.00,WeatherDisplay:10.37,2013-10-24 03:02:00,
2013-10-23 22:07:00,42.7,37.9,30.17,North,356,3.5,3.5,83,0.00,CLR,SKC,0.00,WeatherDisplay:10.37,2013-10-24 03:07:00,
2013-10-23 22:12:00,42.6,37.8,30.17,NW,326,3.2,3.2,83,0.00,CLR,SKC,0.00,WeatherDisplay:10.37,2013-10-24 03:12:00,
2013-10-23 22:17:00,42.2,37.1,30.17,NNW,329,0.0,0.0,82,0.00,CLR,SKC,0.00,WeatherDisplay:10.37,2013-10-24 03:17:00,
2013-10-23 22:22:00,41.6,36.8,30.17,NW,316,2.1,2.1,83,0.00,CLR,SKC,0.00,WeatherDisplay:10.37,2013-10-24 03:22:00,
2013-10-23 22:27:00,41.1,36.3,30.17,NNE,22,1.2,1.2,83,0.00,CLR,SKC,0.00,WeatherDisplay:10.37,2013-10-24 03:27:00,
2013-10-23 22:32:00,40.6,36.1,30.17,North,9,0.0,0.0,84,0.00,CLR,SKC,0.00,WeatherDisplay:10.37,2013-10-24 03:32:00,
2013-10-23 22:37:00,40.0,35.9,30.18,North,9,0.0,0.0,85,0.00,CLR,SKC,0.00,WeatherDisplay:10.37,2013-10-24 03:37:00,
2013-10-23 22:42:00,39.3,35.5,30.18,WNW,301,1.2,1.2,86,0.00,CLR,SKC,0.00,WeatherDisplay:10.37,2013-10-24 03:42:00,
2013-10-23 22:47:00,39.1,35.3,30.18,North,8,1.2,1.2,86,0.00,CLR,SKC,0.00,WeatherDisplay:10.37,2013-10-24 03:47:00,
2013-10-23 22:52:00,38.9,35.4,30.19,NNW,336,1.2,1.2,87,0.00,CLR,SKC,0.00,WeatherDisplay:10.37,2013-10-24 03:52:00,
2013-10-23 22:57:00,38.9,35.4,30.19,NNW,340,1.2,1.2,87,0.00,CLR,SKC,0.00,WeatherDisplay:10.37,2013-10-24 03:57:00,
2013-10-23 23:01:00,38.8,35.3,30.19,NNW,344,1.1,1.1,87,0.00,CLR,SKC,0.00,WeatherDisplay:10.37,2013-10-24 04:01:00,
2013-10-23 23:02:00,38.8,35.3,30.19,NNW,344,1.2,0.0,87,0.00,,SKC,0.00,WeatherDisplay:10.37,2013-10-24 04:02:00,
2013-10-23 23:07:00,38.4,34.9,30.19,NNE,13,0.0,0.0,87,0.00,,SKC,0.00,WeatherDisplay:10.37,2013-10-24 04:07:00,
2013-10-23 23:12:00,38.1,34.9,30.19,NNE,13,0.0,0.0,88,0.00,,SKC,0.00,WeatherDisplay:10.37,2013-10-24 04:12:00,
2013-10-23 23:17:00,37.7,34.5,30.19,NNE,13,0.0,0.0,88,0.00,,SKC,0.00,WeatherDisplay:10.37,2013-10-24 04:17:00,
2013-10-23 23:22:00,37.6,34.7,30.20,WNW,293,2.3,2.3,89,0.00,,SKC,0.00,WeatherDisplay:10.37,2013-10-24 04:22:00,
2013-10-23 23:27:00,37.2,34.3,30.21,WNW,300,0.0,0.0,89,0.00,,SKC,0.00,WeatherDisplay:10.37,2013-10-24 04:27:00,
2013-10-23 23:32:00,37.2,34.5,30.21,WNW,300,0.0,0.0,90,0.00,,SKC,0.00,WeatherDisplay:10.37,2013-10-24 04:32:00,
2013-10-23 23:37:00,37.2,34.8,30.21,WNW,297,0.0,0.0,91,0.00,,SKC,0.00,WeatherDisplay:10.37,2013-10-24 04:37:00,
2013-10-23 23:42:00,37.1,34.4,30.21,WNW,297,0.0,0.0,90,0.00,,SKC,0.00,WeatherDisplay:10.37,2013-10-24 04:42:00,
2013-10-23 23:47:00,36.7,34.0,30.21,WNW,297,0.0,0.0,90,0.00,,SKC,0.00,WeatherDisplay:10.37,2013-10-24 04:47:00,
2013-10-23 23:52:00,36.4,34.0,30.20,North,353,0.0,0.0,91,0.00,,SKC,0.00,WeatherDisplay:10.37,2013-10-24 04:52:00,
2013-10-23 23:57:00,36.2,34.1,30.20,North,9,1.2,1.2,92,0.00,,SKC,0.00,WeatherDisplay:10.37,2013-10-24 04:57:00,